Time;durP1;ratioP1;P1;durP2;ratioP2;P2;SDS_P1;SDS_P2;PMS_P1;PMS_P2;Temp;Humidity;BMP_temperature;BMP_pressure;BME280_temperature;BME280_humidity;BME280_pressure;Samples;Min_cycle;Max_cycle;Signal;HPM_P1;HPM_P2
2021/11/16 00:00:50;;;;;;;31.77;12.75;;;10.10;98.60;;;;;;5002567;28;20046;-47
2021/11/16 00:03:16;;;;;;;35.08;13.23;;;10.10;98.60;;;;;;5010839;28;20080;-47
2021/11/16 00:05:41;;;;;;;36.75;13.80;;;10.10;98.60;;;;;;5011834;28;20125;-47
2021/11/16 00:08:07;;;;;;;35.65;13.40;;;10.10;98.60;;;;;;5013114;28;20057;-47
2021/11/16 00:10:35;;;;;;;38.00;14.82;;;10.10;98.60;;;;;;5012545;28;20117;-47
2021/11/16 00:13:01;;;;;;;32.30;13.65;;;10.10;98.90;;;;;;5009835;28;20026;-47
2021/11/16 00:15:27;;;;;;;36.67;12.45;;;10.10;98.60;;;;;;5008359;28;20357;-48
2021/11/16 00:17:52;;;;;;;44.78;14.30;;;10.10;98.50;;;;;;5012161;28;20022;-47
2021/11/16 00:20:19;;;;;;;40.58;13.45;;;10.10;98.60;;;;;;5012395;28;20120;-47
2021/11/16 00:22:45;;;;;;;33.97;12.60;;;10.10;98.60;;;;;;5012473;28;20087;-47
2021/11/16 00:27:39;;;;;;;39.22;12.30;;;10.10;98.60;;;;;;5012210;28;20187;-48
2021/11/16 00:30:06;;;;;;;29.65;9.95;;;10.10;98.60;;;;;;5009936;28;20037;-48
2021/11/16 00:32:33;;;;;;;32.30;10.52;;;10.10;98.60;;;;;;5011946;28;20029;-47
2021/11/16 00:34:59;;;;;;;31.25;12.48;;;10.10;98.60;;;;;;5009456;28;20030;-48
2021/11/16 00:37:26;;;;;;;32.63;12.30;;;10.20;98.60;;;;;;5012149;28;20018;-47
2021/11/16 00:39:54;;;;;;;38.38;12.90;;;10.10;98.60;;;;;;5012282;28;20069;-48
2021/11/16 00:42:19;;;;;;;33.78;10.90;;;10.10;98.60;;;;;;5011743;28;20080;-47
2021/11/16 00:44:45;;;;;;;37.22;12.75;;;10.20;98.60;;;;;;5010354;28;20037;-47
2021/11/16 00:47:11;;;;;;;32.60;12.65;;;10.10;98.50;;;;;;5010976;28;20034;-47
2021/11/16 00:49:36;;;;;;;39.25;13.23;;;10.10;98.60;;;;;;5012402;28;20026;-47
2021/11/16 00:52:03;;;;;;;26.02;11.43;;;10.10;98.60;;;;;;5012299;28;20408;-47
2021/11/16 00:54:28;;;;;;;37.47;12.73;;;10.10;98.60;;;;;;5011896;28;20400;-47
2021/11/16 00:56:54;;;;;;;36.65;14.10;;;10.10;98.60;;;;;;5008970;28;20036;-48
2021/11/16 00:59:20;;;;;;;44.05;12.57;;;10.10;98.60;;;;;;5011150;28;20492;-47
2021/11/16 01:01:46;;;;;;;32.25;12.75;;;10.10;98.60;;;;;;5010953;28;20034;-48
2021/11/16 01:04:15;;;;;;;33.30;12.77;;;10.10;98.60;;;;;;5011823;28;20022;-47
2021/11/16 01:06:41;;;;;;;32.92;12.35;;;10.10;98.60;;;;;;5005339;28;20038;-47
2021/11/16 01:09:07;;;;;;;43.88;13.45;;;10.10;98.60;;;;;;4992223;28;20106;-47
2021/11/16 01:11:32;;;;;;;28.20;12.02;;;10.10;98.60;;;;;;4991639;28;20109;-48
2021/11/16 01:13:58;;;;;;;38.50;13.73;;;10.10;98.60;;;;;;4991722;28;20386;-48
2021/11/16 01:16:24;;;;;;;43.45;14.48;;;10.10;98.60;;;;;;5001871;28;20064;-48
2021/11/16 01:18:50;;;;;;;38.92;13.65;;;10.10;98.60;;;;;;5010281;28;20537;-47
2021/11/16 01:21:15;;;;;;;34.50;12.25;;;10.10;98.60;;;;;;5011603;28;20084;-47
2021/11/16 01:23:42;;;;;;;31.60;12.57;;;10.20;98.60;;;;;;5007286;28;20022;-48
2021/11/16 01:26:08;;;;;;;31.52;12.73;;;10.20;98.60;;;;;;4990528;28;20100;-48
2021/11/16 01:28:33;;;;;;;30.80;12.20;;;10.10;98.60;;;;;;4992945;28;20238;-47
2021/11/16 01:31:03;;;;;;;34.78;12.75;;;10.10;98.60;;;;;;4998168;28;20088;-48
2021/11/16 01:33:40;;;;;;;33.78;12.82;;;10.10;98.60;;;;;;4997412;28;20465;-47
2021/11/16 01:36:08;;;;;;;42.75;12.50;;;10.10;98.60;;;;;;4991099;28;20026;-47
2021/11/16 01:38:34;;;;;;;47.22;13.30;;;10.10;98.60;;;;;;4992783;28;20126;-48
2021/11/16 01:40:59;;;;;;;33.22;12.10;;;10.10;98.60;;;;;;4991627;28;20121;-48
2021/11/16 01:43:25;;;;;;;30.55;10.15;;;10.10;98.60;;;;;;4992001;28;20069;-47
2021/11/16 01:45:51;;;;;;;34.80;13.38;;;10.10;98.60;;;;;;4994603;28;20484;-48
2021/11/16 01:48:18;;;;;;;39.78;12.13;;;10.10;98.60;;;;;;5011338;28;20033;-48
2021/11/16 01:50:45;;;;;;;37.10;13.20;;;10.10;98.60;;;;;;5009461;28;20029;-48
2021/11/16 01:53:12;;;;;;;34.70;12.35;;;10.10;98.60;;;;;;5010862;28;20128;-48
2021/11/16 01:55:38;;;;;;;39.70;13.00;;;10.10;98.60;;;;;;5010723;28;20089;-48
2021/11/16 01:58:05;;;;;;;36.92;14.23;;;10.10;98.60;;;;;;5011332;28;20026;-47
2021/11/16 02:00:37;;;;;;;36.05;12.80;;;10.20;98.90;;;;;;5006922;28;20333;-47
2021/11/16 02:03:03;;;;;;;38.05;12.95;;;10.20;98.60;;;;;;5011368;28;20026;-47
2021/11/16 02:05:46;;;;;;;29.55;12.52;;;10.20;98.60;;;;;;5010213;28;20032;-47
2021/11/16 02:08:13;;;;;;;31.30;11.50;;;10.20;98.60;;;;;;5004746;28;20053;-47
2021/11/16 02:10:42;;;;;;;24.92;10.65;;;10.10;98.60;;;;;;4992346;28;20085;-47
2021/11/16 02:13:08;;;;;;;31.02;11.30;;;10.10;98.60;;;;;;4992700;28;20414;-47
2021/11/16 02:15:37;;;;;;;35.05;12.57;;;10.20;98.70;;;;;;4990029;28;20026;-48
2021/11/16 02:18:08;;;;;;;34.28;12.50;;;10.20;98.60;;;;;;5010822;28;20030;-47
2021/11/16 02:20:34;;;;;;;29.98;10.43;;;10.20;98.60;;;;;;5008809;28;20420;-47
2021/11/16 02:23:01;;;;;;;31.35;12.45;;;10.20;98.60;;;;;;5010942;28;20050;-47
2021/11/16 02:25:27;;;;;;;42.85;11.98;;;10.20;98.60;;;;;;5010132;28;20029;-47
2021/11/16 02:27:53;;;;;;;22.90;10.13;;;10.10;98.60;;;;;;5010922;28;20022;-47
2021/11/16 02:30:21;;;;;;;30.10;9.05;;;10.20;98.60;;;;;;5010409;28;20034;-48
2021/11/16 02:32:47;;;;;;;30.42;10.40;;;10.20;98.60;;;;;;5008142;28;20453;-47
2021/11/16 02:35:18;;;;;;;35.03;11.60;;;10.20;98.60;;;;;;5010161;28;20064;-47
2021/11/16 02:37:44;;;;;;;35.20;12.52;;;10.20;98.60;;;;;;5010874;28;20030;-47
2021/11/16 02:40:10;;;;;;;31.80;10.82;;;10.20;98.60;;;;;;5010689;28;20117;-47
2021/11/16 02:42:36;;;;;;;32.67;12.25;;;10.20;98.60;;;;;;5000190;28;20327;-47
2021/11/16 02:45:04;;;;;;;33.13;12.77;;;10.20;98.60;;;;;;4990472;28;20073;-47
2021/11/16 02:47:30;;;;;;;35.10;12.35;;;10.20;98.60;;;;;;5009328;28;20022;-47
2021/11/16 02:49:55;;;;;;;30.50;10.80;;;10.20;98.60;;;;;;5010349;28;20096;-47
2021/11/16 02:52:22;;;;;;;33.70;11.18;;;10.10;98.60;;;;;;5008979;28;20326;-47
2021/11/16 02:54:49;;;;;;;32.90;11.70;;;10.20;98.60;;;;;;5010638;28;20029;-47
2021/11/16 02:57:15;;;;;;;36.33;12.68;;;10.20;98.60;;;;;;5010401;28;20037;-47
2021/11/16 02:59:41;;;;;;;34.72;11.15;;;10.20;98.60;;;;;;5014113;28;20117;-47
2021/11/16 03:02:09;;;;;;;37.30;12.60;;;10.20;98.60;;;;;;5012941;28;20044;-47
2021/11/16 03:04:35;;;;;;;30.23;12.02;;;10.20;98.60;;;;;;5012167;28;20080;-47
2021/11/16 03:07:03;;;;;;;28.98;10.57;;;10.20;98.60;;;;;;5013087;28;20408;-47
2021/11/16 03:09:31;;;;;;;32.20;11.65;;;10.20;98.60;;;;;;5013449;28;20033;-47
2021/11/16 03:11:58;;;;;;;29.48;9.70;;;10.20;98.60;;;;;;5013859;28;20029;-47
2021/11/16 03:14:24;;;;;;;28.30;10.82;;;10.20;98.60;;;;;;5011982;28;20041;-47
2021/11/16 03:16:51;;;;;;;28.95;10.63;;;10.10;98.60;;;;;;5012259;28;20345;-47
2021/11/16 03:19:17;;;;;;;30.88;10.82;;;10.20;98.60;;;;;;5013790;28;20449;-47
2021/11/16 03:21:44;;;;;;;25.42;10.10;;;10.20;98.60;;;;;;5013822;28;20065;-47
2021/11/16 03:24:12;;;;;;;28.92;10.25;;;10.20;98.60;;;;;;5012768;28;20018;-47
2021/11/16 03:26:38;;;;;;;22.45;8.68;;;10.20;98.60;;;;;;4993343;28;20030;-47
2021/11/16 03:29:04;;;;;;;35.75;10.25;;;10.10;98.60;;;;;;4993369;28;20022;-47
2021/11/16 03:31:38;;;;;;;22.30;9.32;;;10.10;98.60;;;;;;4995956;28;20534;-47
2021/11/16 03:34:04;;;;;;;28.52;9.98;;;10.20;98.60;;;;;;5013420;28;20053;-47
2021/11/16 03:36:31;;;;;;;33.40;10.43;;;10.20;98.60;;;;;;5011213;28;20253;-47
2021/11/16 03:39:00;;;;;;;28.90;11.70;;;10.20;98.60;;;;;;5013508;28;20022;-47
2021/11/16 03:41:25;;;;;;;24.38;8.60;;;10.20;98.60;;;;;;5013241;28;20037;-47
2021/11/16 03:43:54;;;;;;;32.95;10.73;;;10.20;98.60;;;;;;5012848;28;20361;-47
2021/11/16 03:46:20;;;;;;;32.75;10.75;;;10.20;99.00;;;;;;5003982;28;20037;-47
2021/11/16 03:48:46;;;;;;;31.50;9.32;;;10.20;98.60;;;;;;5012539;28;20453;-47
2021/11/16 03:51:12;;;;;;;28.13;8.80;;;10.20;98.60;;;;;;5013223;28;20026;-47
2021/11/16 03:53:38;;;;;;;31.05;10.10;;;10.10;98.60;;;;;;5013316;28;20026;-47
2021/11/16 03:56:04;;;;;;;30.52;9.30;;;10.20;98.60;;;;;;5011563;28;20441;-47
2021/11/16 03:58:30;;;;;;;25.50;8.50;;;10.20;98.60;;;;;;4993688;28;20065;-47
2021/11/16 04:00:59;;;;;;;26.90;10.18;;;10.20;98.60;;;;;;4992942;28;20053;-47
2021/11/16 04:03:30;;;;;;;25.13;9.48;;;10.20;98.60;;;;;;5005891;28;20466;-47
2021/11/16 04:05:56;;;;;;;26.42;11.55;;;10.10;98.60;;;;;;4993593;28;20096;-47
2021/11/16 04:08:22;;;;;;;27.05;8.98;;;10.20;98.60;;;;;;4993616;28;20034;-47
2021/11/16 04:10:49;;;;;;;22.20;9.57;;;10.20;98.60;;;;;;4992914;28;20077;-47
2021/11/16 04:13:15;;;;;;;31.17;9.43;;;10.20;98.60;;;;;;4993257;28;20023;-47
2021/11/16 04:15:42;;;;;;;18.98;7.95;;;10.20;98.60;;;;;;4992172;28;20036;-47
2021/11/16 04:18:08;;;;;;;18.88;7.40;;;10.20;98.60;;;;;;5003203;28;20376;-47
2021/11/16 04:20:39;;;;;;;27.75;9.30;;;10.20;98.50;;;;;;5012618;28;20124;-47
2021/11/16 04:23:07;;;;;;;14.27;6.68;;;10.20;98.60;;;;;;5012059;28;20524;-47
2021/11/16 04:25:34;;;;;;;19.65;7.72;;;10.20;98.60;;;;;;5011585;28;20057;-47
2021/11/16 04:28:01;;;;;;;15.70;6.88;;;10.20;98.60;;;;;;5012005;28;20022;-47
2021/11/16 04:30:29;;;;;;;17.30;7.28;;;10.10;98.50;;;;;;5010176;28;20042;-47
2021/11/16 04:32:56;;;;;;;17.42;6.88;;;10.20;98.60;;;;;;5011663;28;20030;-47
2021/11/16 04:35:22;;;;;;;24.55;7.35;;;10.20;98.90;;;;;;5011714;28;20357;-47
2021/11/16 04:37:51;;;;;;;19.60;6.15;;;10.20;98.60;;;;;;5012036;28;20037;-47
2021/11/16 04:40:32;;;;;;;21.95;8.15;;;10.20;98.50;;;;;;5010556;28;20038;-47
2021/11/16 04:43:05;;;;;;;24.38;7.10;;;10.20;98.50;;;;;;5011929;28;20120;-47
2021/11/16 04:45:32;;;;;;;14.55;5.90;;;10.20;98.60;;;;;;5011599;28;20033;-47
2021/11/16 04:48:08;;;;;;;16.80;5.90;;;10.20;98.50;;;;;;5011063;28;20034;-47
2021/11/16 04:50:46;;;;;;;19.02;6.95;;;10.20;98.50;;;;;;5010600;28;20085;-47
2021/11/16 04:53:47;;;;;;;26.98;7.10;;;10.20;98.50;;;;;;5011484;28;20029;-47
2021/11/16 05:04:19;;;;;;;14.02;6.00;;;10.10;98.50;;;;;;5006407;28;20117;-47
2021/11/16 05:06:45;;;;;;;19.23;7.60;;;10.20;98.50;;;;;;5005396;28;20045;-47
2021/11/16 05:09:14;;;;;;;17.95;6.03;;;10.20;98.80;;;;;;5010938;28;20026;-47
2021/11/16 05:11:39;;;;;;;15.27;6.10;;;10.20;98.50;;;;;;5011676;28;20040;-47
2021/11/16 05:14:05;;;;;;;18.10;6.20;;;10.20;98.50;;;;;;5011532;28;20022;-47
2021/11/16 05:16:31;;;;;;;19.55;6.18;;;10.20;98.50;;;;;;5011133;28;20077;-47
2021/11/16 05:18:57;;;;;;;20.80;6.75;;;10.20;98.50;;;;;;5009409;28;20750;-47
2021/11/16 05:21:22;;;;;;;17.15;5.68;;;10.20;98.50;;;;;;5011113;28;20124;-47
2021/11/16 05:23:54;;;;;;;16.67;6.97;;;10.20;98.50;;;;;;5011741;28;20018;-47
2021/11/16 05:26:21;;;;;;;15.98;6.60;;;10.20;98.50;;;;;;5010430;28;20037;-47
2021/11/16 05:28:47;;;;;;;18.60;6.03;;;10.10;98.40;;;;;;5011645;28;20084;-47
2021/11/16 05:31:17;;;;;;;18.45;6.82;;;10.20;98.50;;;;;;5010247;28;20026;-47
2021/11/16 05:33:43;;;;;;;22.17;6.03;;;10.20;98.50;;;;;;5010546;28;20095;-47
2021/11/16 05:36:10;;;;;;;22.88;7.72;;;10.10;98.50;;;;;;5010439;28;20058;-47
2021/11/16 05:38:38;;;;;;;17.83;6.47;;;10.10;98.40;;;;;;4992761;28;20037;-47
2021/11/16 05:41:04;;;;;;;20.55;6.80;;;10.10;98.40;;;;;;4992575;28;20405;-47
2021/11/16 05:43:30;;;;;;;17.27;6.90;;;10.10;98.40;;;;;;4991798;28;20026;-47
2021/11/16 05:45:57;;;;;;;19.48;6.97;;;10.10;98.40;;;;;;4991017;28;20123;-48
2021/11/16 05:48:24;;;;;;;17.10;5.75;;;10.10;98.40;;;;;;4999346;28;20037;-47
2021/11/16 05:50:51;;;;;;;15.38;5.30;;;10.10;98.40;;;;;;5010745;28;20037;-48
2021/11/16 05:53:17;;;;;;;17.48;6.60;;;10.10;98.40;;;;;;4991834;28;20442;-47
2021/11/16 05:55:44;;;;;;;13.75;5.45;;;10.20;98.40;;;;;;4990670;28;20409;-47
2021/11/16 05:58:16;;;;;;;14.75;5.43;;;10.20;98.40;;;;;;4991276;28;20323;-47
2021/11/16 06:00:42;;;;;;;15.68;5.88;;;10.10;98.40;;;;;;4993090;28;20042;-47
2021/11/16 06:03:09;;;;;;;13.63;5.70;;;10.10;98.40;;;;;;4996140;28;20076;-47
2021/11/16 06:05:35;;;;;;;14.43;6.38;;;10.10;98.40;;;;;;5009849;28;20089;-47
2021/11/16 06:08:01;;;;;;;14.50;5.18;;;10.10;98.40;;;;;;5008533;28;20113;-47
2021/11/16 06:10:27;;;;;;;11.73;5.63;;;10.10;98.40;;;;;;5010519;28;20417;-47
2021/11/16 06:12:52;;;;;;;12.50;5.38;;;10.10;98.20;;;;;;5004695;28;20045;-47
2021/11/16 06:15:18;;;;;;;14.95;6.47;;;10.10;98.20;;;;;;4993298;28;20021;-47
2021/11/16 06:17:44;;;;;;;19.58;6.85;;;10.10;98.10;;;;;;4997552;28;20105;-47
2021/11/16 06:20:17;;;;;;;17.00;6.13;;;10.10;98.20;;;;;;5009326;28;20348;-47
2021/11/16 06:22:43;;;;;;;10.20;5.25;;;10.10;98.10;;;;;;5009811;28;20369;-47
2021/11/16 06:25:08;;;;;;;17.60;6.72;;;10.10;98.20;;;;;;5010158;28;20030;-48
2021/11/16 06:27:34;;;;;;;19.00;6.35;;;10.10;98.20;;;;;;5009150;28;20019;-47
2021/11/16 06:30:00;;;;;;;15.52;6.30;;;10.10;98.20;;;;;;4990727;28;20029;-47
2021/11/16 06:32:25;;;;;;;16.90;6.25;;;10.10;98.20;;;;;;5000748;28;20110;-47
2021/11/16 06:34:52;;;;;;;15.98;7.00;;;10.10;98.20;;;;;;5012042;28;20362;-47
2021/11/16 06:37:18;;;;;;;17.48;6.78;;;10.10;98.20;;;;;;5013444;28;20018;-47
2021/11/16 06:39:44;;;;;;;16.40;5.20;;;10.10;98.20;;;;;;5001783;28;20050;-47
2021/11/16 06:42:13;;;;;;;9.93;5.35;;;10.10;98.20;;;;;;4994729;28;20022;-47
2021/11/16 06:44:39;;;;;;;15.45;6.50;;;10.10;98.30;;;;;;4994633;28;20509;-47
2021/11/16 06:47:05;;;;;;;15.27;6.32;;;10.10;98.20;;;;;;5011255;28;20112;-47
2021/11/16 06:49:30;;;;;;;16.17;6.07;;;10.10;98.20;;;;;;5011453;28;20021;-47
2021/11/16 06:51:57;;;;;;;16.67;6.35;;;10.10;98.20;;;;;;5014284;28;20026;-47
2021/11/16 06:54:25;;;;;;;15.52;6.53;;;10.10;98.20;;;;;;5014070;28;20361;-47
2021/11/16 06:56:52;;;;;;;18.40;6.45;;;10.10;98.20;;;;;;5013559;28;20036;-48
2021/11/16 06:59:24;;;;;;;14.10;5.95;;;10.10;98.20;;;;;;5013726;28;20080;-47
2021/11/16 07:01:50;;;;;;;17.13;5.78;;;10.10;98.30;;;;;;5012827;28;20076;-47
2021/11/16 07:04:16;;;;;;;14.93;5.38;;;10.10;98.30;;;;;;5012865;28;20077;-47
2021/11/16 07:06:44;;;;;;;12.65;6.10;;;10.10;98.30;;;;;;5013681;28;20030;-47
2021/11/16 07:09:12;;;;;;;16.65;6.53;;;10.10;98.30;;;;;;5013540;28;20025;-47
2021/11/16 07:11:52;;;;;;;17.55;6.80;;;10.10;98.30;;;;;;5002164;28;20481;-48
2021/11/16 07:14:24;;;;;;;16.77;7.32;;;10.10;98.30;;;;;;4993872;28;20497;-48
2021/11/16 07:16:55;;;;;;;15.13;6.35;;;10.10;98.30;;;;;;4993368;28;20050;-48
2021/11/16 07:19:37;;;;;;;19.33;6.38;;;10.10;98.30;;;;;;5003636;28;20092;-47
2021/11/16 07:22:21;;;;;;;13.90;5.70;;;10.10;98.30;;;;;;5011869;28;20108;-48
2021/11/16 07:25:08;;;;;;;21.45;6.13;;;10.10;98.30;;;;;;5013243;28;20449;-47
2021/11/16 07:27:34;;;;;;;14.18;6.15;;;10.10;98.30;;;;;;5013329;28;20100;-47
2021/11/16 07:30:01;;;;;;;12.38;6.07;;;10.10;98.30;;;;;;5013060;28;20042;-47
2021/11/16 07:32:29;;;;;;;15.63;7.10;;;10.10;98.30;;;;;;5011861;28;20457;-47
2021/11/16 07:35:01;;;;;;;14.13;6.50;;;10.10;98.30;;;;;;5011766;28;20104;-47
2021/11/16 07:37:33;;;;;;;14.15;5.68;;;10.10;98.30;;;;;;5013274;28;20025;-47
2021/11/16 07:40:10;;;;;;;13.05;4.93;;;10.10;98.30;;;;;;5013525;28;20346;-47
2021/11/16 07:42:58;;;;;;;14.10;6.00;;;10.10;98.30;;;;;;5011061;28;20118;-48
2021/11/16 07:45:26;;;;;;;14.68;5.28;;;10.10;98.30;;;;;;5012244;28;20048;-47
2021/11/16 07:48:01;;;;;;;14.75;6.03;;;10.10;98.30;;;;;;5012738;28;20108;-48
2021/11/16 07:50:30;;;;;;;13.85;4.72;;;10.10;98.30;;;;;;5012866;28;20030;-49
2021/11/16 07:53:08;;;;;;;18.83;6.15;;;10.10;98.30;;;;;;5011090;28;20033;-47
2021/11/16 07:55:34;;;;;;;11.68;5.90;;;10.10;98.30;;;;;;5012637;28;20097;-48
2021/11/16 07:58:04;;;;;;;18.17;6.43;;;10.10;98.30;;;;;;4994440;28;20165;-47
2021/11/16 08:00:32;;;;;;;16.85;6.25;;;10.10;98.30;;;;;;4993413;28;20092;-47
2021/11/16 08:03:04;;;;;;;19.17;7.18;;;10.10;98.30;;;;;;4993621;28;20117;-47
2021/11/16 08:05:39;;;;;;;16.10;6.00;;;10.10;98.40;;;;;;5009311;28;20037;-47
2021/11/16 08:08:27;;;;;;;19.65;7.63;;;10.10;98.40;;;;;;4997975;28;20061;-47
2021/11/16 08:11:21;;;;;;;11.95;5.40;;;10.10;98.40;;;;;;4993591;28;20042;-47
2021/11/16 08:13:52;;;;;;;16.30;6.13;;;10.10;98.40;;;;;;4993638;28;20293;-48
2021/11/16 08:16:18;;;;;;;17.23;6.55;;;10.10;98.40;;;;;;4993167;28;20064;-47
2021/11/16 08:19:06;;;;;;;13.27;5.63;;;10.10;98.40;;;;;;4994009;28;20062;-47
2021/11/16 08:21:34;;;;;;;17.92;7.75;;;10.10;98.40;;;;;;4996783;28;20038;-47
2021/11/16 08:24:07;;;;;;;18.63;7.03;;;10.10;98.40;;;;;;4993982;28;20100;-47
2021/11/16 08:26:45;;;;;;;18.17;5.40;;;10.10;98.40;;;;;;4998737;28;20349;-47
2021/11/16 08:29:13;;;;;;;20.52;7.68;;;10.10;98.40;;;;;;4996935;28;20125;-47
2021/11/16 08:31:50;;;;;;;16.73;6.53;;;10.20;98.40;;;;;;4992385;28;20081;-47
2021/11/16 08:34:16;;;;;;;11.95;5.55;;;10.10;98.40;;;;;;4996436;28;20105;-47
2021/11/16 08:36:51;;;;;;;14.07;6.00;;;10.10;98.40;;;;;;5009665;28;20040;-48
2021/11/16 08:39:21;;;;;;;19.20;6.88;;;10.10;98.40;;;;;;5012263;28;20028;-48
2021/11/16 08:41:47;;;;;;;17.73;7.90;;;10.10;98.40;;;;;;5012317;28;20040;-47
2021/11/16 08:44:14;;;;;;;17.25;7.20;;;10.10;98.40;;;;;;5012280;28;20029;-47
2021/11/16 08:46:43;;;;;;;16.15;7.35;;;10.10;98.40;;;;;;4999339;28;20069;-48
2021/11/16 08:49:34;;;;;;;18.33;6.57;;;10.20;98.50;;;;;;4994083;28;20138;-47
2021/11/16 08:52:08;;;;;;;13.85;6.47;;;10.20;98.50;;;;;;5011823;28;20174;-47
2021/11/16 08:54:35;;;;;;;10.27;5.03;;;10.10;98.40;;;;;;5011075;28;20513;-47
2021/11/16 08:57:04;;;;;;;15.02;7.13;;;10.10;98.40;;;;;;5009854;28;20045;-47
2021/11/16 08:59:34;;;;;;;14.27;6.45;;;10.20;98.50;;;;;;5012003;28;20109;-47
2021/11/16 09:02:06;;;;;;;14.40;6.40;;;10.20;98.50;;;;;;5011519;28;20038;-47
2021/11/16 09:04:34;;;;;;;15.85;6.68;;;10.20;98.50;;;;;;5010131;28;20361;-48
2021/11/16 09:07:01;;;;;;;12.02;6.68;;;10.20;98.50;;;;;;5007440;28;20092;-47
2021/11/16 09:09:28;;;;;;;18.08;6.55;;;10.20;98.40;;;;;;4992029;28;20057;-47
2021/11/16 09:12:06;;;;;;;15.52;7.65;;;10.20;98.50;;;;;;4992081;28;20038;-47
2021/11/16 09:14:32;;;;;;;15.85;5.57;;;10.20;98.50;;;;;;4991815;28;20026;-47
2021/11/16 09:17:09;;;;;;;16.10;7.13;;;10.20;98.40;;;;;;4990974;28;20034;-48
2021/11/16 09:19:34;;;;;;;20.17;7.63;;;10.20;98.40;;;;;;5010044;28;20037;-47
2021/11/16 09:22:02;;;;;;;12.60;6.22;;;10.20;98.40;;;;;;5011669;28;20029;-47
2021/11/16 09:24:37;;;;;;;16.65;6.05;;;10.20;98.40;;;;;;5010864;28;20049;-47
2021/11/16 09:29:36;;;;;;;15.30;7.13;;;10.20;98.50;;;;;;4997562;28;20461;-47
2021/11/16 09:32:10;;;;;;;18.67;7.07;;;10.20;98.50;;;;;;4991882;28;20019;-47
2021/11/16 09:34:40;;;;;;;9.70;5.43;;;10.10;98.40;;;;;;4993951;28;20033;-48
2021/11/16 09:37:16;;;;;;;11.85;5.15;;;10.20;98.50;;;;;;5010484;28;20492;-47
2021/11/16 09:39:58;;;;;;;11.55;5.97;;;10.20;98.50;;;;;;5009698;28;20061;-48
2021/11/16 09:42:30;;;;;;;16.83;6.55;;;10.20;98.50;;;;;;5011209;28;20360;-47
2021/11/16 09:45:03;;;;;;;14.40;7.07;;;10.20;98.50;;;;;;5010823;28;20112;-48
2021/11/16 09:47:32;;;;;;;16.42;6.70;;;10.20;98.50;;;;;;4992354;28;20033;-47
2021/11/16 09:50:00;;;;;;;11.60;5.28;;;10.20;98.50;;;;;;4996663;28;20094;-47
2021/11/16 09:52:25;;;;;;;9.40;4.70;;;10.20;98.40;;;;;;5011239;28;20023;-47
2021/11/16 09:54:55;;;;;;;14.02;5.80;;;10.20;98.40;;;;;;5010690;28;20088;-47
2021/11/16 09:57:24;;;;;;;13.23;5.78;;;10.20;98.40;;;;;;5010790;28;20026;-47
2021/11/16 09:59:51;;;;;;;12.57;5.30;;;10.20;98.40;;;;;;5010255;28;20033;-48
2021/11/16 10:02:29;;;;;;;12.05;6.30;;;10.20;98.50;;;;;;5009282;28;20022;-49
2021/11/16 10:05:01;;;;;;;9.05;4.90;;;10.20;98.40;;;;;;5004372;28;20041;-47
2021/11/16 10:07:27;;;;;;;11.30;5.53;;;10.20;98.40;;;;;;5012330;28;20361;-47
2021/11/16 10:09:53;;;;;;;12.93;5.88;;;10.20;98.40;;;;;;5015126;28;20128;-47
2021/11/16 10:12:23;;;;;;;11.60;5.15;;;10.10;98.40;;;;;;5000930;28;20023;-48
2021/11/16 10:14:49;;;;;;;;;;;10.20;98.40;;;;;;4999617;28;20405;-47
2021/11/16 10:17:15;;;;;;;11.93;5.55;;;10.20;98.40;;;;;;5013849;28;19906;-48
2021/11/16 10:19:41;;;;;;;13.85;6.22;;;10.20;98.40;;;;;;5013757;28;20724;-47
2021/11/16 10:22:11;;;;;;;15.73;6.80;;;10.20;98.40;;;;;;5007293;28;20045;-48
2021/11/16 10:24:39;;;;;;;16.45;6.40;;;10.20;98.40;;;;;;4995344;28;20101;-48
2021/11/16 10:27:16;;;;;;;17.13;5.93;;;10.20;98.40;;;;;;5000749;28;20065;-47
2021/11/16 10:29:43;;;;;;;12.23;5.63;;;10.20;98.40;;;;;;5012184;28;20112;-47
2021/11/16 10:32:20;;;;;;;12.95;5.10;;;10.20;98.30;;;;;;4997428;28;20038;-47
2021/11/16 10:34:47;;;;;;;14.18;4.75;;;10.20;98.70;;;;;;5014459;28;20080;-47
2021/11/16 10:37:14;;;;;;;16.50;5.18;;;10.20;98.40;;;;;;5013903;28;20053;-48
2021/11/16 10:39:39;;;;;;;16.90;6.97;;;10.20;98.40;;;;;;5007107;28;20042;-47
2021/11/16 10:42:15;;;;;;;15.95;5.57;;;10.20;98.40;;;;;;5014614;28;20365;-47
2021/11/16 10:44:58;;;;;;;21.80;8.57;;;10.20;98.40;;;;;;5012659;28;20041;-49
2021/11/16 10:47:35;;;;;;;29.33;8.80;;;10.20;98.30;;;;;;5012403;28;20030;-47
2021/11/16 10:50:07;;;;;;;10.38;4.82;;;10.20;98.30;;;;;;5012982;28;20059;-47
2021/11/16 10:52:35;;;;;;;16.02;5.95;;;10.20;98.30;;;;;;5014415;28;20044;-47
2021/11/16 10:55:03;;;;;;;20.88;8.32;;;10.20;98.30;;;;;;5011522;28;20238;-47
2021/11/16 10:57:51;;;;;;;28.92;10.10;;;10.20;98.30;;;;;;5014068;28;20160;-47
2021/11/16 11:00:38;;;;;;;11.73;5.93;;;10.20;98.30;;;;;;5013788;28;20037;-47
2021/11/16 11:03:17;;;;;;;21.63;8.05;;;10.20;98.30;;;;;;5013766;28;20072;-47
2021/11/16 11:05:47;;;;;;;26.92;8.00;;;10.20;98.30;;;;;;5010625;28;20120;-47
2021/11/16 11:08:36;;;;;;;20.65;7.93;;;10.20;98.30;;;;;;5014300;28;20022;-47
2021/11/16 11:11:05;;;;;;;25.20;9.07;;;10.20;98.30;;;;;;5013827;28;20034;-48
2021/11/16 11:13:33;;;;;;;20.75;8.50;;;10.30;98.30;;;;;;5013787;28;20057;-47
2021/11/16 11:16:00;;;;;;;22.75;7.82;;;10.20;98.30;;;;;;5011389;28;20032;-48
2021/11/16 11:18:31;;;;;;;22.52;7.63;;;10.20;98.30;;;;;;5013418;28;20026;-47
2021/11/16 11:20:58;;;;;;;16.17;6.88;;;10.20;98.30;;;;;;5012743;28;20034;-47
2021/11/16 11:23:42;;;;;;;20.83;7.63;;;10.20;98.30;;;;;;5013647;28;20449;-47
2021/11/16 11:26:45;;;;;;;21.48;6.85;;;10.20;98.30;;;;;;5003875;28;20084;-47
2021/11/16 11:29:31;;;;;;;17.83;6.68;;;10.20;98.30;;;;;;4994390;28;20026;-47
2021/11/16 11:32:03;;;;;;;17.25;5.70;;;10.20;98.30;;;;;;4993792;28;20027;-47
2021/11/16 11:34:35;;;;;;;10.23;5.18;;;10.20;98.30;;;;;;4994019;28;20125;-47
2021/11/16 11:37:03;;;;;;;11.23;4.75;;;10.20;98.30;;;;;;5005151;28;20018;-47
2021/11/16 11:39:32;;;;;;;12.77;4.97;;;10.20;98.30;;;;;;5013613;28;20107;-47
2021/11/16 11:41:59;;;;;;;8.13;4.28;;;10.20;98.30;;;;;;5013003;28;20034;-48
2021/11/16 11:44:26;;;;;;;13.52;5.00;;;10.20;98.30;;;;;;5012399;28;20020;-47
2021/11/16 11:47:00;;;;;;;10.85;3.75;;;10.20;98.30;;;;;;5010879;28;20061;-47
2021/11/16 11:49:27;;;;;;;9.00;4.25;;;10.20;98.30;;;;;;5013000;28;20464;-47
2021/11/16 11:51:55;;;;;;;11.00;5.05;;;10.20;98.30;;;;;;5012174;28;20038;-48
2021/11/16 11:54:21;;;;;;;11.73;4.22;;;10.20;98.20;;;;;;5013042;28;20026;-48
2021/11/16 11:56:50;;;;;;;8.90;5.03;;;10.20;98.20;;;;;;5012170;28;20109;-48
2021/11/16 11:59:17;;;;;;;9.40;4.53;;;10.20;98.20;;;;;;5011744;28;20029;-48
2021/11/16 12:01:44;;;;;;;8.55;4.18;;;10.20;98.20;;;;;;5010731;28;20053;-47
2021/11/16 12:04:15;;;;;;;13.60;5.70;;;10.20;98.20;;;;;;5012898;28;20026;-47
2021/11/16 12:06:40;;;;;;;14.93;5.60;;;10.20;98.20;;;;;;5011149;28;20347;-47
2021/11/16 12:09:08;;;;;;;12.57;5.38;;;10.20;98.20;;;;;;5011763;28;20030;-47
2021/11/16 12:11:34;;;;;;;14.88;6.68;;;10.20;98.20;;;;;;5012889;28;20033;-47
2021/11/16 12:14:08;;;;;;;7.13;4.18;;;10.20;98.20;;;;;;5012756;28;20036;-47
2021/11/16 12:16:52;;;;;;;13.32;5.25;;;10.20;98.20;;;;;;5008216;28;20022;-47
2021/11/16 12:19:19;;;;;;;13.85;6.10;;;10.20;98.30;;;;;;4998656;28;20021;-47
2021/11/16 12:21:47;;;;;;;8.57;3.92;;;10.30;98.20;;;;;;5011296;28;20476;-47
2021/11/16 12:24:14;;;;;;;11.10;5.15;;;10.20;98.20;;;;;;5012044;28;20377;-47
2021/11/16 12:26:52;;;;;;;10.23;4.93;;;10.20;98.20;;;;;;5011254;28;20049;-47
2021/11/16 12:29:24;;;;;;;12.40;5.13;;;10.20;98.20;;;;;;5010744;28;20053;-47
2021/11/16 12:31:55;;;;;;;12.23;5.03;;;10.20;98.20;;;;;;4992372;28;20038;-47
2021/11/16 12:34:38;;;;;;;10.88;4.55;;;10.20;98.20;;;;;;4992973;28;20103;-47
2021/11/16 12:37:05;;;;;;;17.52;6.82;;;10.20;98.20;;;;;;4993625;28;20421;-47
2021/11/16 12:39:31;;;;;;;11.73;5.00;;;10.20;98.20;;;;;;4992785;28;20027;-47
2021/11/16 12:42:11;;;;;;;12.73;5.50;;;10.20;98.20;;;;;;4993613;28;20030;-47
2021/11/16 12:44:57;;;;;;;17.58;6.50;;;10.20;98.20;;;;;;4992422;28;20451;-47
2021/11/16 12:47:24;;;;;;;22.23;7.53;;;10.20;98.20;;;;;;4991964;28;20369;-47
2021/11/16 12:49:50;;;;;;;13.40;5.57;;;10.20;98.20;;;;;;4992340;28;20554;-47
2021/11/16 12:52:20;;;;;;;16.25;5.97;;;10.30;98.20;;;;;;5004244;28;20041;-47
2021/11/16 12:54:46;;;;;;;11.98;4.80;;;10.20;98.20;;;;;;5012066;28;20049;-47
2021/11/16 12:57:20;;;;;;;14.10;5.20;;;10.20;98.20;;;;;;5010785;28;20061;-47
2021/11/16 12:59:46;;;;;;;10.10;4.85;;;10.30;98.20;;;;;;5011904;28;20364;-47